Hlavní strana
METAR-TAF:

METAR-TAF

Letiště :

Molde, Norsko

zeměpisná šířka: 62-45N, zeměpisná délka: 007-16E, výška: 0 m

Aktuální stav počasí

Zpráva byla vytvořena před 21 minutami, v 02:50 UTC
Severoseverovýchodní vítr 6 kt
Teplota 0°C
Vlhkost vzduchu 80%
Tlak 1017 hPa
Viditelnost 10 km a více

METAR: ENML 180250Z AUTO 02006KT 9999NDV OVC170/// M00/M03 Q1017

Čas: 04:11 (03:11 UTC)

Předpověď počasí

Zpráva byla vytvořena před 10 hodinami a 11 minutami, v 17:00 UTC
Předpověď platná od 17 v 18 UTC do 17 v 23 UTC
Severoseverovýchodní vítr 6 kt
Viditelnost 10 km a více
Skoro jasno ve výšce 3000 ft
Oblačno až skoro zataženo ve výšce 4000 ft

TAF: ENML 171700Z 1718/1723 03006KT 9999 FEW030 BKN040

Stav a předpovědi počasí z více než 4 000 letišť (zprávy METAR a TAF).

Červené a žluté tečky na mapě představují dostupné meteorologické stanice.

Když kurzor umístíte na tečku, zobrazí se název stanice.

Pak kliknutím zobrazíte stav a předpověď počasí.

Chcete-li změnit mapu, kliknutím na zelené tlačítko se znaménkem +mapu přiblížíte, kliknutím na zelené tlačítko se znaménkem – mapu oddálíte a kliknutím na zelené šipky přejdete na sousední mapy.


METAR-TAF: